Portada
METAR-TAF:

METAR-TAF

Aeroports :

Beaver Island Airport

Beaver Island, Michigan, Estats Units d'Amèrica

latitud: 45-41-32N, longitud: 085-33-59W, altitud: 204 m

Observació

L'informe es va fer fa 17 minuts, a les 07:15 UTC
Vent 9 kt del Nord/Nord-Oest amb ràfegues de 15 kt
Temperatura 2°C
Humitat 100%
Pressió 1007 hPa
Visibilitat: 11.3 km
Cel cobert a una alçada de 400 ft

METAR: KSJX 300715Z AUTO 34009G15KT 7SM OVC004 02/02 A2973 RMK AO2 T00210021

Hora: 03:32 (07:32 UTC)


TAF: manca

Observacions i pronòstics meteorològics de més de 4000 aeroports (METAR i TAF).

Les estacions disponibles són els punts grocs i vermells al mapa.

Posi el ratolí al punt desitjat per veure el nom de l'estació.

Feu clic per veure les observacions i els pronòstics meteorològics.

Per canviar el mapa: feu clic els botons verds amb una creu de color negre per apropar; al botó verd amb un guió per allunyar la imatge; o en les fletxes verdes per a mapes adjacents.


METAR-TAF: